createdAt,value
2019-05-20T00:02:28.954Z,29.10
2019-05-20T00:05:22.551Z,31.40
2019-05-20T00:07:51.859Z,33.00
2019-05-20T00:10:22.783Z,33.40
2019-05-20T00:12:52.953Z,31.40
2019-05-20T00:15:27.274Z,34.07
2019-05-20T00:17:55.761Z,32.97
2019-05-20T00:20:25.784Z,31.93
2019-05-20T00:22:57.975Z,34.80
2019-05-20T00:25:28.979Z,37.07
2019-05-20T00:27:57.137Z,35.90
2019-05-20T00:33:17.875Z,35.00
2019-05-20T00:35:47.311Z,38.57
2019-05-20T00:38:42.411Z,36.93
2019-05-20T00:41:17.942Z,35.80
2019-05-20T00:43:46.418Z,36.07
2019-05-20T00:46:41.512Z,32.57
2019-05-20T00:49:13.034Z,37.03
2019-05-20T00:51:45.266Z,38.97
2019-05-20T00:54:14.489Z,39.20
2019-05-20T00:56:53.085Z,39.47
2019-05-20T00:59:25.600Z,37.90
2019-05-20T01:01:58.282Z,34.80
2019-05-20T01:04:28.429Z,39.80
2019-05-20T01:06:59.025Z,40.30
2019-05-20T01:09:31.764Z,35.30
2019-05-20T01:11:59.984Z,41.73
2019-05-20T01:14:33.537Z,37.67
2019-05-20T01:17:07.182Z,41.43
2019-05-20T01:19:55.202Z,41.53
2019-05-20T01:22:23.457Z,42.77
2019-05-20T01:24:56.442Z,45.13
2019-05-20T01:27:27.456Z,40.30
2019-05-20T01:29:58.465Z,40.73
2019-05-20T01:32:46.516Z,40.17
2019-05-20T01:35:15.014Z,42.77
2019-05-20T01:37:45.974Z,41.67
2019-05-20T01:40:33.808Z,37.00
2019-05-20T01:43:02.412Z,38.87
2019-05-20T01:45:30.786Z,34.67
2019-05-20T01:54:36.083Z,42.20
2019-05-20T01:57:04.309Z,36.17
2019-05-20T01:59:32.422Z,41.00
2019-05-20T02:04:48.848Z,33.47
2019-05-20T02:07:16.427Z,41.90
2019-05-20T02:09:43.971Z,40.77
2019-05-20T02:12:11.591Z,42.77
2019-05-20T02:14:44.808Z,41.00
2019-05-20T02:17:13.491Z,43.00
2019-05-20T02:19:41.063Z,35.93
2019-05-20T02:22:08.596Z,36.53
2019-05-20T02:24:36.074Z,36.37
2019-05-20T02:27:03.668Z,33.10
2019-05-20T02:29:32.428Z,38.87
2019-05-20T02:32:00.093Z,41.43
2019-05-20T02:34:28.606Z,37.63
2019-05-20T02:36:57.079Z,39.57
2019-05-20T02:39:26.709Z,36.83
2019-05-20T02:41:54.791Z,36.67
2019-05-20T02:44:22.467Z,38.70
2019-05-20T02:46:50.088Z,39.60
2019-05-20T02:49:17.802Z,38.00
2019-05-20T02:51:45.404Z,41.93
2019-05-20T02:54:12.898Z,40.10
2019-05-20T02:56:40.433Z,42.93
2019-05-20T02:59:07.933Z,42.30
2019-05-20T03:01:35.673Z,44.27
2019-05-20T03:04:11.562Z,49.50
2019-05-20T03:06:32.592Z,45.47
2019-05-20T03:09:00.075Z,48.27
2019-05-20T03:11:27.648Z,42.93
2019-05-20T03:13:57.880Z,45.63
2019-05-20T03:16:25.667Z,40.87
2019-05-20T03:18:53.233Z,44.80
2019-05-20T03:21:20.807Z,45.20
2019-05-20T03:23:48.639Z,48.30
2019-05-20T03:26:16.291Z,46.97
2019-05-20T03:28:43.969Z,50.67
2019-05-20T03:31:11.444Z,47.10
2019-05-20T03:33:39.024Z,48.20
2019-05-20T03:36:07.797Z,49.70
2019-05-20T03:38:35.350Z,52.30
2019-05-20T03:41:02.854Z,47.63
2019-05-20T03:43:30.467Z,47.33
2019-05-20T03:45:58.149Z,45.40
2019-05-20T03:48:25.987Z,43.60
2019-05-20T03:50:54.826Z,44.93
2019-05-20T03:53:22.413Z,44.80
2019-05-20T03:55:50.022Z,45.90
2019-05-20T03:58:20.601Z,44.10
2019-05-20T04:00:48.208Z,36.20
2019-05-20T04:03:16.062Z,47.13
2019-05-20T04:05:44.406Z,38.87
2019-05-20T04:08:12.264Z,39.73
2019-05-20T04:10:40.033Z,46.80
2019-05-20T04:13:07.890Z,47.27
2019-05-20T04:15:35.508Z,43.83
2019-05-20T04:18:04.136Z,43.70
2019-05-20T04:20:31.821Z,42.00
2019-05-20T04:22:59.434Z,43.33
2019-05-20T04:25:27.113Z,45.50
2019-05-20T04:27:58.730Z,48.37
2019-05-20T04:30:26.282Z,43.63
2019-05-20T04:32:53.698Z,46.87
2019-05-20T04:35:23.652Z,48.87
2019-05-20T04:37:51.262Z,48.70
2019-05-20T04:40:18.871Z,45.37
2019-05-20T04:42:46.602Z,47.50
2019-05-20T04:45:14.642Z,48.20
2019-05-20T04:48:04.414Z,47.03
2019-05-20T04:50:32.985Z,43.30
2019-05-20T04:53:00.640Z,46.97
2019-05-20T04:55:28.239Z,45.17
2019-05-20T04:57:56.110Z,46.57
2019-05-20T05:00:48.788Z,47.43
2019-05-20T05:03:17.735Z,48.03
2019-05-20T05:05:46.058Z,46.40
2019-05-20T05:08:14.222Z,44.50
2019-05-20T05:10:42.928Z,49.73
2019-05-20T05:13:10.491Z,49.00
2019-05-20T05:15:37.968Z,47.87
2019-05-20T05:18:05.550Z,51.67
2019-05-20T05:20:33.335Z,48.23
2019-05-20T05:23:01.188Z,48.17
2019-05-20T05:25:29.096Z,49.73
2019-05-20T05:27:56.899Z,49.67
2019-05-20T05:30:24.407Z,53.90
2019-05-20T05:32:51.921Z,54.77
2019-05-20T05:35:19.427Z,55.90
2019-05-20T05:37:47.365Z,55.50
2019-05-20T05:40:15.444Z,60.77
2019-05-20T05:42:42.905Z,50.90
2019-05-20T05:45:12.194Z,59.03
2019-05-20T05:47:39.680Z,60.67
2019-05-20T05:50:08.599Z,72.53
2019-05-20T05:52:35.944Z,68.70
2019-05-20T05:55:03.657Z,81.83
2019-05-20T05:57:31.116Z,76.73
2019-05-20T05:59:58.628Z,82.67
2019-05-20T06:02:26.082Z,81.57
2019-05-20T06:04:53.574Z,80.10
2019-05-20T06:07:21.597Z,85.27
2019-05-20T06:09:49.161Z,80.77
2019-05-20T06:12:16.744Z,84.87
2019-05-20T06:14:44.413Z,79.17
2019-05-20T06:17:12.273Z,76.30
2019-05-20T06:19:39.869Z,72.50
2019-05-20T06:22:07.310Z,77.90
2019-05-20T06:24:34.738Z,73.57
2019-05-20T06:27:02.206Z,69.10
2019-05-20T06:29:29.687Z,59.27
2019-05-20T06:31:57.699Z,56.80
2019-05-20T06:34:25.508Z,58.23
2019-05-20T06:36:54.989Z,76.07
2019-05-20T06:39:22.368Z,73.70
2019-05-20T06:41:49.706Z,70.93
2019-05-20T06:44:17.282Z,70.13
2019-05-20T06:46:45.227Z,71.07
2019-05-20T06:49:12.778Z,65.50
2019-05-20T06:51:40.469Z,75.40
2019-05-20T06:54:08.156Z,75.30
2019-05-20T06:56:35.915Z,72.80
2019-05-20T06:59:04.613Z,72.57
2019-05-20T07:01:32.435Z,71.73
2019-05-20T07:04:00.100Z,64.17
2019-05-20T07:06:44.884Z,65.90
2019-05-20T07:08:57.286Z,62.43
2019-05-20T07:11:25.044Z,67.93
2019-05-20T07:13:53.026Z,66.00
2019-05-20T07:16:20.399Z,69.27
2019-05-20T07:18:49.703Z,73.00
2019-05-20T07:21:17.361Z,76.53
2019-05-20T07:23:46.124Z,74.80
2019-05-20T07:26:13.794Z,70.30
2019-05-20T07:28:43.641Z,65.73
2019-05-20T07:31:11.338Z,69.40
2019-05-20T07:33:38.918Z,59.40
2019-05-20T07:36:09.873Z,59.17
2019-05-20T07:38:35.864Z,55.57
2019-05-20T07:41:03.408Z,58.00
2019-05-20T07:43:31.087Z,58.70
2019-05-20T07:45:59.984Z,55.13
2019-05-20T07:48:27.892Z,54.37
2019-05-20T07:51:15.623Z,56.30
2019-05-20T07:53:43.581Z,52.00
2019-05-20T07:56:15.339Z,52.10
2019-05-20T07:58:47.448Z,54.13
2019-05-20T08:01:15.179Z,56.10
2019-05-20T08:03:42.727Z,52.33
2019-05-20T08:06:10.667Z,55.40
2019-05-20T08:08:38.329Z,63.00
2019-05-20T08:11:05.871Z,62.77
2019-05-20T08:13:33.338Z,58.63
2019-05-20T08:16:01.001Z,56.03
2019-05-20T08:18:28.538Z,61.17
2019-05-20T08:20:56.484Z,64.23
2019-05-20T08:23:24.353Z,68.10
2019-05-20T08:25:51.926Z,59.40
2019-05-20T08:28:19.554Z,57.30
2019-05-20T08:30:49.066Z,55.53
2019-05-20T08:33:16.513Z,58.33
2019-05-20T08:35:44.027Z,60.27
2019-05-20T08:38:12.684Z,66.67
2019-05-20T08:40:41.355Z,63.97
2019-05-20T08:43:09.682Z,64.80
2019-05-20T08:45:37.436Z,63.37
2019-05-20T08:48:04.999Z,61.90
2019-05-20T08:50:32.530Z,63.13
2019-05-20T08:53:00.001Z,58.90
2019-05-20T08:55:27.509Z,57.70
2019-05-20T08:58:00.403Z,55.60
2019-05-20T09:00:28.065Z,58.93
2019-05-20T09:02:56.028Z,56.27
2019-05-20T09:05:23.535Z,58.13
2019-05-20T09:08:02.195Z,58.53
2019-05-20T09:10:20.412Z,56.40
2019-05-20T09:12:47.894Z,56.10
2019-05-20T09:15:16.056Z,55.13
2019-05-20T09:17:44.200Z,52.53
2019-05-20T09:20:12.179Z,51.00
2019-05-20T09:22:39.615Z,49.47
2019-05-20T09:25:08.094Z,51.43
2019-05-20T09:27:37.138Z,45.47
2019-05-20T09:30:06.135Z,45.57
2019-05-20T09:32:35.449Z,48.33
2019-05-20T09:35:04.253Z,46.17
2019-05-20T09:37:33.323Z,44.07
2019-05-20T09:40:00.982Z,41.83
2019-05-20T09:42:28.503Z,43.37
2019-05-20T09:44:57.135Z,41.93
2019-05-20T09:47:24.626Z,39.33
2019-05-20T09:49:52.326Z,38.43
2019-05-20T09:52:19.892Z,39.27
2019-05-20T09:54:47.598Z,36.70
2019-05-20T09:57:15.012Z,35.33
2019-05-20T09:59:43.825Z,33.87
2019-05-20T10:02:13.864Z,35.67
2019-05-20T10:04:41.340Z,35.33
2019-05-20T10:07:08.952Z,33.07
2019-05-20T10:09:36.482Z,30.27
2019-05-20T10:12:23.661Z,28.17
2019-05-20T10:14:52.838Z,29.23
2019-05-20T10:17:20.530Z,29.03
2019-05-20T10:19:48.076Z,32.13
2019-05-20T10:22:15.666Z,33.50
2019-05-20T10:24:43.127Z,34.13
2019-05-20T10:27:10.601Z,30.97
2019-05-20T10:29:37.990Z,31.47
2019-05-20T10:32:05.457Z,31.63
2019-05-20T10:34:32.914Z,32.93
2019-05-20T10:37:00.431Z,32.63
2019-05-20T10:39:27.987Z,32.87
2019-05-20T10:41:56.130Z,32.90
2019-05-20T10:44:23.852Z,31.10
2019-05-20T10:46:51.482Z,34.50
2019-05-20T10:49:19.112Z,32.70
2019-05-20T10:51:46.684Z,32.27
2019-05-20T10:54:14.293Z,31.63
2019-05-20T10:56:41.963Z,32.13
2019-05-20T10:59:11.946Z,30.50
2019-05-20T11:01:38.930Z,31.70
2019-05-20T11:04:06.470Z,32.03
2019-05-20T11:06:33.986Z,32.53
2019-05-20T11:09:13.612Z,33.50
2019-05-20T11:11:31.383Z,32.03
2019-05-20T11:13:59.123Z,32.97
2019-05-20T11:16:26.636Z,31.50
2019-05-20T11:18:55.369Z,31.53
2019-05-20T11:21:22.879Z,31.67
2019-05-20T11:23:50.750Z,30.07
2019-05-20T11:26:18.054Z,31.43
2019-05-20T11:28:45.705Z,30.40
2019-05-20T11:31:13.058Z,27.80
2019-05-20T11:33:40.587Z,30.13
2019-05-20T11:36:08.098Z,28.97
2019-05-20T11:38:35.489Z,28.27
2019-05-20T11:41:03.121Z,27.27
2019-05-20T11:43:30.645Z,28.20
2019-05-20T11:45:58.186Z,28.93
2019-05-20T11:48:25.656Z,27.00
2019-05-20T11:50:53.177Z,28.17
2019-05-20T11:53:20.940Z,28.93
2019-05-20T11:55:49.584Z,27.00
2019-05-20T11:58:17.222Z,26.60
2019-05-20T12:00:47.495Z,26.27
2019-05-20T12:03:14.947Z,26.80
2019-05-20T12:05:42.610Z,25.63
2019-05-20T12:08:10.250Z,25.87
2019-05-20T12:10:37.711Z,29.27
2019-05-20T12:13:05.444Z,25.27
2019-05-20T12:15:33.107Z,24.27
2019-05-20T12:18:00.578Z,23.53
2019-05-20T12:20:28.091Z,24.00
2019-05-20T12:22:55.994Z,24.17
2019-05-20T12:25:23.504Z,22.93
2019-05-20T12:27:51.006Z,21.47
2019-05-20T12:30:18.903Z,22.33
2019-05-20T12:32:46.404Z,19.83
2019-05-20T12:35:14.660Z,21.37
2019-05-20T12:37:45.541Z,21.77
2019-05-20T12:40:12.859Z,24.57
2019-05-20T12:42:40.330Z,22.60
2019-05-20T12:45:08.678Z,23.13
2019-05-20T12:47:36.172Z,22.93
2019-05-20T12:50:04.303Z,26.00
2019-05-20T12:52:31.571Z,23.73
2019-05-20T12:55:07.853Z,25.60
2019-05-20T12:57:28.612Z,24.53
2019-05-20T13:00:15.971Z,23.50
2019-05-20T13:02:43.506Z,25.60
2019-05-20T13:05:11.326Z,24.80
2019-05-20T13:07:39.027Z,24.90
2019-05-20T13:10:26.527Z,24.67
2019-05-20T13:12:38.743Z,27.23
2019-05-20T13:15:07.114Z,25.60
2019-05-20T13:17:34.677Z,24.13
2019-05-20T13:20:02.246Z,24.87
2019-05-20T13:22:29.697Z,26.77
2019-05-20T13:24:57.209Z,25.57
2019-05-20T13:27:24.791Z,25.33
2019-05-20T13:29:52.361Z,22.97
2019-05-20T13:32:20.015Z,26.67
2019-05-20T13:34:47.459Z,25.13
2019-05-20T13:37:14.785Z,23.90
2019-05-20T13:39:42.999Z,26.07
2019-05-20T13:42:10.563Z,24.57
2019-05-20T13:44:38.028Z,24.40
2019-05-20T13:47:05.501Z,24.37
2019-05-20T13:49:33.264Z,24.60
2019-05-20T13:52:00.749Z,22.97
2019-05-20T13:54:28.347Z,23.20
2019-05-20T13:56:55.797Z,22.80
2019-05-20T13:59:23.365Z,23.23
2019-05-20T14:01:50.914Z,21.90
2019-05-20T14:04:18.471Z,23.90
2019-05-20T14:06:45.909Z,23.23
2019-05-20T14:09:13.444Z,23.67
2019-05-20T14:11:40.907Z,22.17
2019-05-20T14:14:08.697Z,21.53
2019-05-20T14:16:36.113Z,21.10
2019-05-20T14:19:03.565Z,21.67
2019-05-20T14:21:31.284Z,21.83
2019-05-20T14:23:58.799Z,22.33
2019-05-20T14:26:26.354Z,23.60
2019-05-20T14:28:53.966Z,23.90
2019-05-20T14:31:21.490Z,21.97
2019-05-20T14:33:48.801Z,22.00
2019-05-20T14:36:37.931Z,22.80
2019-05-20T14:38:47.295Z,26.33
2019-05-20T14:41:21.725Z,24.30
2019-05-20T14:43:44.295Z,25.83
2019-05-20T14:46:11.827Z,25.27
2019-05-20T14:48:39.288Z,26.73
2019-05-20T14:51:06.785Z,26.10
2019-05-20T14:53:34.174Z,27.03
2019-05-20T14:56:01.636Z,28.60
2019-05-20T14:58:29.338Z,28.20
2019-05-20T15:01:01.935Z,29.93
2019-05-20T15:03:29.550Z,28.23
2019-05-20T15:05:57.088Z,29.43
2019-05-20T15:08:24.658Z,28.80
2019-05-20T15:10:52.279Z,29.43
2019-05-20T15:13:19.757Z,30.70
2019-05-20T15:15:50.222Z,32.73
2019-05-20T15:18:17.698Z,30.33
2019-05-20T15:20:45.025Z,31.17
2019-05-20T15:23:12.494Z,29.20
2019-05-20T15:25:39.935Z,28.37
2019-05-20T15:28:07.553Z,27.93
2019-05-20T15:30:35.179Z,27.20
2019-05-20T15:33:03.073Z,30.23
2019-05-20T15:35:30.851Z,30.20
2019-05-20T15:38:08.102Z,30.87
2019-05-20T15:40:35.991Z,30.00
2019-05-20T15:45:54.985Z,32.33
2019-05-20T15:48:21.607Z,31.27
2019-05-20T15:50:49.911Z,31.10
2019-05-20T15:53:17.939Z,31.57
2019-05-20T15:55:45.540Z,30.50
2019-05-20T15:58:13.237Z,31.83
2019-05-20T16:00:40.831Z,29.70
2019-05-20T16:03:08.455Z,28.70
2019-05-20T16:05:36.294Z,30.73
2019-05-20T16:08:04.080Z,29.50
2019-05-20T16:10:31.592Z,28.50
2019-05-20T16:13:01.639Z,30.90
2019-05-20T16:15:29.185Z,31.50
2019-05-20T16:17:57.964Z,29.00
2019-05-20T16:20:25.439Z,28.70
2019-05-20T16:22:52.785Z,27.60
2019-05-20T16:25:20.446Z,26.67
2019-05-20T16:27:47.953Z,26.30
2019-05-20T16:30:15.829Z,26.53
2019-05-20T16:32:43.241Z,25.90
2019-05-20T16:35:11.306Z,25.07
2019-05-20T16:37:39.089Z,24.33
2019-05-20T16:40:08.456Z,24.67
2019-05-20T16:42:37.537Z,24.50
2019-05-20T16:45:05.798Z,24.37
2019-05-20T16:47:33.375Z,24.10
2019-05-20T16:50:00.902Z,22.93
2019-05-20T16:52:28.535Z,23.60
2019-05-20T16:54:57.170Z,23.60
2019-05-20T16:57:24.784Z,22.43
2019-05-20T16:59:52.277Z,22.33
2019-05-20T17:02:19.777Z,21.43
2019-05-20T17:04:50.222Z,21.00
2019-05-20T17:07:17.773Z,20.30
2019-05-20T17:09:46.294Z,22.10
2019-05-20T17:12:13.831Z,20.70
2019-05-20T17:14:41.267Z,20.50
2019-05-20T17:17:08.958Z,20.13
2019-05-20T17:19:36.426Z,21.27
2019-05-20T17:22:04.587Z,21.00
2019-05-20T17:24:32.290Z,21.30
2019-05-20T17:26:59.707Z,20.13
2019-05-20T17:29:27.169Z,19.47
2019-05-20T17:31:54.922Z,20.97
2019-05-20T17:34:22.565Z,20.27
2019-05-20T17:36:50.107Z,19.87
2019-05-20T17:39:17.759Z,21.07
2019-05-20T17:41:47.760Z,20.27
2019-05-20T17:44:15.397Z,20.10
2019-05-20T17:46:42.785Z,21.27
2019-05-20T17:49:10.352Z,19.40
2019-05-20T17:51:38.018Z,19.17
2019-05-20T17:54:07.078Z,19.10
2019-05-20T17:56:34.576Z,18.90
2019-05-20T17:59:05.084Z,18.30
2019-05-20T18:01:33.677Z,19.00
2019-05-20T18:04:01.581Z,18.83
2019-05-20T18:06:29.239Z,20.07
2019-05-20T18:08:59.031Z,19.47
2019-05-20T18:11:26.603Z,19.03
2019-05-20T18:13:53.942Z,21.27
2019-05-20T18:16:21.550Z,18.13
2019-05-20T18:18:49.357Z,19.87
2019-05-20T18:21:18.235Z,20.50
2019-05-20T18:23:47.323Z,18.40
2019-05-20T18:26:14.875Z,19.90
2019-05-20T18:28:42.416Z,19.03
2019-05-20T18:31:09.885Z,19.50
2019-05-20T18:33:38.449Z,19.30
2019-05-20T18:36:06.355Z,21.30
2019-05-20T18:38:34.125Z,20.20
2019-05-20T18:41:13.734Z,21.00
2019-05-20T18:43:43.460Z,20.90
2019-05-20T18:46:11.433Z,20.70
2019-05-20T18:48:38.825Z,22.60
2019-05-20T18:51:06.357Z,22.03
2019-05-20T18:53:33.997Z,21.73
2019-05-20T18:56:01.785Z,22.40
2019-05-20T18:58:29.550Z,20.87
2019-05-20T19:00:57.054Z,22.57
2019-05-20T19:03:25.024Z,21.20
2019-05-20T19:05:52.790Z,22.00
2019-05-20T19:08:20.433Z,21.47
2019-05-20T19:10:48.079Z,21.33
2019-05-20T19:13:15.722Z,22.00
2019-05-20T19:15:43.249Z,21.73
2019-05-20T19:18:10.898Z,21.00
2019-05-20T19:20:38.285Z,22.10
2019-05-20T19:23:05.834Z,22.10
2019-05-20T19:25:37.632Z,22.80
2019-05-20T19:28:02.557Z,22.67
2019-05-20T19:30:30.242Z,21.57
2019-05-20T19:32:57.713Z,19.77
2019-05-20T19:35:25.477Z,20.83
2019-05-20T19:37:53.409Z,20.70
2019-05-20T19:40:21.049Z,22.67
2019-05-20T19:42:48.977Z,22.30
2019-05-20T19:45:16.957Z,21.80
2019-05-20T19:47:44.645Z,22.37
2019-05-20T19:50:12.912Z,23.33
2019-05-20T19:52:40.574Z,22.60
2019-05-20T19:55:08.727Z,22.20
2019-05-20T19:57:36.259Z,21.70
2019-05-20T20:00:06.182Z,22.87
2019-05-20T20:02:35.112Z,21.83
2019-05-20T20:05:03.651Z,24.00
2019-05-20T20:07:31.322Z,23.10
2019-05-20T20:09:58.932Z,22.30
2019-05-20T20:12:26.393Z,21.80
2019-05-20T20:14:54.049Z,23.10
2019-05-20T20:17:24.051Z,24.50
2019-05-20T20:19:51.622Z,23.20
2019-05-20T20:22:19.363Z,23.40
2019-05-20T20:24:47.667Z,26.83
2019-05-20T20:27:15.114Z,25.27
2019-05-20T20:29:42.737Z,26.90
2019-05-20T20:32:10.333Z,26.73
2019-05-20T20:34:38.009Z,26.93
2019-05-20T20:37:05.509Z,26.43
2019-05-20T20:39:34.484Z,28.33
2019-05-20T20:42:02.736Z,28.00
2019-05-20T20:44:31.167Z,28.57
2019-05-20T20:46:59.199Z,28.60
2019-05-20T20:49:28.622Z,29.93
2019-05-20T20:51:58.718Z,30.43
2019-05-20T20:54:28.119Z,28.77
2019-05-20T20:56:56.158Z,30.33
2019-05-20T20:59:24.446Z,31.30
2019-05-20T21:01:56.720Z,33.00
2019-05-20T21:04:22.202Z,33.50
2019-05-20T21:06:50.712Z,34.43
2019-05-20T21:09:18.931Z,33.10
2019-05-20T21:11:48.598Z,33.03
2019-05-20T21:14:17.316Z,33.50
2019-05-20T21:16:45.788Z,31.97
2019-05-20T21:19:13.645Z,32.60
2019-05-20T21:21:41.163Z,33.07
2019-05-20T21:24:10.122Z,33.30
2019-05-20T21:26:37.576Z,32.30
2019-05-20T21:29:04.915Z,30.70
2019-05-20T21:31:32.412Z,32.83
2019-05-20T21:33:59.966Z,30.63
2019-05-20T21:36:27.655Z,31.23
2019-05-20T21:38:55.087Z,30.30
2019-05-20T21:41:22.476Z,31.87
2019-05-20T21:43:49.870Z,30.53
2019-05-20T21:46:17.438Z,30.90
2019-05-20T21:48:44.974Z,29.50
2019-05-20T21:51:12.531Z,29.37
2019-05-20T21:53:40.127Z,31.00
2019-05-20T21:56:09.731Z,28.90
2019-05-20T21:58:37.357Z,27.93
2019-05-20T22:01:06.025Z,27.73
2019-05-20T22:03:33.625Z,30.93
2019-05-20T22:06:01.212Z,29.57
2019-05-20T22:08:28.789Z,30.03
2019-05-20T22:10:56.297Z,28.47
2019-05-20T22:13:23.787Z,28.60
2019-05-20T22:15:51.442Z,30.07
2019-05-20T22:18:18.963Z,29.30
2019-05-20T22:20:46.985Z,29.60
2019-05-20T22:23:39.543Z,29.70
2019-05-20T22:26:08.300Z,32.30
2019-05-20T22:28:35.886Z,28.17
2019-05-20T22:31:03.534Z,30.30
2019-05-20T22:33:40.868Z,28.47
2019-05-20T22:36:00.438Z,31.83
2019-05-20T22:38:27.895Z,29.80
2019-05-20T22:40:55.557Z,29.77
2019-05-20T22:43:23.136Z,31.03
2019-05-20T22:45:50.774Z,30.97
2019-05-20T22:48:18.399Z,32.03
2019-05-20T22:50:48.791Z,29.80
2019-05-20T22:53:15.785Z,31.10
2019-05-20T22:55:43.346Z,31.57
2019-05-20T22:58:10.854Z,31.10
2019-05-20T23:00:38.365Z,30.40
2019-05-20T23:03:06.115Z,30.50
2019-05-20T23:05:33.702Z,31.97
2019-05-20T23:08:01.269Z,31.40
2019-05-20T23:10:30.610Z,31.97
2019-05-20T23:12:59.074Z,31.60
2019-05-20T23:15:26.725Z,31.00
2019-05-20T23:17:54.315Z,30.90
2019-05-20T23:20:21.904Z,31.53
2019-05-20T23:22:49.643Z,30.63
2019-05-20T23:25:17.147Z,31.40
2019-05-20T23:27:44.583Z,31.50
2019-05-20T23:30:12.686Z,32.23
2019-05-20T23:32:40.194Z,31.10
2019-05-20T23:35:07.875Z,32.17
2019-05-20T23:37:35.449Z,32.63
2019-05-20T23:40:03.389Z,34.90
2019-05-20T23:42:30.912Z,32.93
2019-05-20T23:44:58.380Z,35.17
2019-05-20T23:47:26.058Z,35.37
2019-05-20T23:49:53.492Z,34.67
2019-05-20T23:52:21.018Z,34.20
2019-05-20T23:54:48.483Z,35.20
2019-05-20T23:57:16.180Z,37.50
2019-05-20T23:59:43.871Z,38.63
